Time;durP1;ratioP1;P1;durP2;ratioP2;P2;SDS_P1;SDS_P2;PMS_P1;PMS_P2;Temp;Humidity;BMP_temperature;BMP_pressure;BME280_temperature;BME280_humidity;BME280_pressure;Samples;Min_cycle;Max_cycle;Signal;HPM_P1;HPM_P2
2022/05/01 00:02:07;;;;;;;32.75;18.88;;;4.20;99.90;;;;;;5142163;27;20047;-88
2022/05/01 00:04:33;;;;;;;31.58;20.23;;;4.20;99.90;;;;;;5143140;27;20466;-88
2022/05/01 00:06:59;;;;;;;41.83;19.60;;;4.10;99.90;;;;;;5148020;27;20035;-88
2022/05/01 00:09:25;;;;;;;35.13;19.45;;;4.00;99.90;;;;;;5147854;27;20096;-89
2022/05/01 00:11:51;;;;;;;33.72;17.98;;;4.00;99.90;;;;;;5151410;27;20062;-89
2022/05/01 00:14:17;;;;;;;35.50;19.10;;;4.00;99.90;;;;;;5148956;27;20047;-89
2022/05/01 00:16:43;;;;;;;35.40;21.05;;;4.00;99.90;;;;;;5148910;27;20039;-89
2022/05/01 00:19:09;;;;;;;34.03;19.98;;;4.30;99.90;;;;;;5151264;27;20043;-88
2022/05/01 00:21:38;;;;;;;35.80;19.42;;;3.90;99.90;;;;;;5148371;27;20043;-88
2022/05/01 00:24:05;;;;;;;37.85;20.50;;;2.70;99.90;;;;;;5150879;27;20035;-89
2022/05/01 00:26:31;;;;;;;32.25;18.48;;;3.80;99.90;;;;;;5150284;27;20046;-89
2022/05/01 00:28:56;;;;;;;36.10;20.10;;;3.70;99.90;;;;;;5150430;27;20035;-88
2022/05/01 00:31:22;;;;;;;32.88;19.35;;;3.70;99.90;;;;;;5148556;28;20031;-89
2022/05/01 00:36:32;;;;;;;31.63;18.02;;;3.60;99.90;;;;;;5149617;28;20053;-89
2022/05/01 00:39:01;;;;;;;33.72;18.00;;;3.60;99.90;;;;;;5133005;28;20047;-88
2022/05/01 00:41:28;;;;;;;34.08;18.83;;;3.60;99.90;;;;;;5151310;27;20071;-88
2022/05/01 00:44:11;;;;;;;31.08;17.98;;;3.60;99.90;;;;;;5147700;27;20114;-88
2022/05/01 00:46:39;;;;;;;35.90;20.08;;;4.30;99.90;;;;;;5150476;27;20047;-89
2022/05/01 00:49:08;;;;;;;33.05;19.02;;;3.40;99.90;;;;;;5148881;27;20027;-90
2022/05/01 00:51:44;;;;;;;37.42;19.15;;;3.30;99.90;;;;;;5153654;27;20123;-89
2022/05/01 00:54:11;;;;;;;32.95;17.90;;;3.20;99.90;;;;;;5131298;27;20483;-88
2022/05/01 00:56:41;;;;;;;33.67;19.38;;;3.10;99.90;;;;;;5146005;27;20435;-89
2022/05/01 00:59:08;;;;;;;32.28;18.33;;;3.00;99.90;;;;;;5143949;27;20046;-89
2022/05/01 01:01:35;;;;;;;37.58;18.38;;;2.90;99.90;;;;;;5145635;27;20054;-88
2022/05/01 01:04:00;;;;;;;37.00;19.63;;;1.70;99.90;;;;;;5145382;27;20039;-88
2022/05/01 01:06:26;;;;;;;37.58;19.85;;;2.70;99.90;;;;;;5146997;27;20582;-89
2022/05/01 01:08:52;;;;;;;34.40;18.55;;;2.60;99.90;;;;;;5146427;27;20193;-89
2022/05/01 01:11:18;;;;;;;31.38;18.77;;;2.60;99.90;;;;;;5144901;27;20096;-89
2022/05/01 01:13:47;;;;;;;39.75;20.58;;;2.50;99.90;;;;;;5145515;27;20035;-89
2022/05/01 01:16:12;;;;;;;36.60;18.88;;;2.40;99.90;;;;;;5145311;27;20527;-89
2022/05/01 01:18:39;;;;;;;31.83;18.85;;;2.30;99.90;;;;;;5144981;27;20087;-89
2022/05/01 01:21:09;;;;;;;37.88;20.42;;;2.30;99.90;;;;;;5144763;27;20039;-89
2022/05/01 01:23:42;;;;;;;42.95;20.75;;;2.20;99.90;;;;;;5143238;27;20042;-89
2022/05/01 01:26:09;;;;;;;42.83;21.20;;;2.20;99.90;;;;;;5145002;27;20054;-89
2022/05/01 01:28:39;;;;;;;40.25;20.35;;;2.20;99.90;;;;;;5145642;27;20078;-89
2022/05/01 01:33:53;;;;;;;46.20;22.00;;;2.00;99.90;;;;;;5144757;27;20051;-89
2022/05/01 01:36:23;;;;;;;47.00;21.70;;;1.90;99.90;;;;;;5145297;27;20067;-90
2022/05/01 01:38:50;;;;;;;43.78;20.98;;;1.80;99.90;;;;;;5144576;27;20031;-89
2022/05/01 01:41:21;;;;;;;40.88;20.23;;;1.70;99.90;;;;;;5146241;27;20206;-89
2022/05/01 01:43:48;;;;;;;42.65;21.48;;;1.80;99.90;;;;;;5127373;27;20043;-89
2022/05/01 01:46:14;;;;;;;45.90;23.48;;;1.70;99.90;;;;;;5127508;27;20051;-88
2022/05/01 01:48:39;;;;;;;49.53;23.88;;;1.70;99.90;;;;;;5143143;27;20044;-88
2022/05/01 01:51:06;;;;;;;53.30;24.70;;;1.60;99.90;;;;;;5143537;27;20074;-89
2022/05/01 01:53:34;;;;;;;49.95;22.85;;;1.60;99.90;;;;;;5144463;27;20039;-88
2022/05/01 01:56:00;;;;;;;59.05;26.13;;;1.50;99.90;;;;;;5154633;27;20031;-89
2022/05/01 02:01:02;;;;;;;46.37;23.80;;;1.70;99.90;;;;;;5064165;22;20060;-87
2022/05/01 02:03:28;;;;;;;60.08;24.83;;;1.50;99.90;;;;;;5041213;28;20175;-88
2022/05/01 02:05:54;;;;;;;50.17;24.52;;;1.80;99.90;;;;;;5062406;28;20493;-88
2022/05/01 02:08:20;;;;;;;52.97;25.67;;;1.60;99.90;;;;;;5041615;28;20045;-88
2022/05/01 02:10:48;;;;;;;58.72;24.92;;;1.20;99.90;;;;;;5023960;28;20041;-88
2022/05/01 02:13:14;;;;;;;45.17;22.10;;;1.10;99.90;;;;;;5040334;28;20045;-88
2022/05/01 02:15:40;;;;;;;60.85;25.88;;;1.50;99.90;;;;;;5023827;28;20167;-87
2022/05/01 02:18:09;;;;;;;64.90;27.55;;;1.10;99.90;;;;;;5023959;28;20060;-88
2022/05/01 02:23:21;;;;;;;49.78;24.15;;;1.10;99.90;;;;;;5041902;28;20049;-88
2022/05/01 02:25:48;;;;;;;56.55;26.85;;;1.50;99.90;;;;;;5023496;28;20057;-87
2022/05/01 02:28:14;;;;;;;54.92;25.95;;;0.90;99.90;;;;;;5024328;28;20041;-87
2022/05/01 02:30:40;;;;;;;65.40;29.50;;;0.80;99.90;;;;;;5023982;28;20045;-87
2022/05/01 02:33:10;;;;;;;54.60;26.58;;;1.00;99.90;;;;;;5041234;28;20120;-87
2022/05/01 02:35:38;;;;;;;52.22;24.70;;;0.70;99.90;;;;;;5023843;28;20049;-87
2022/05/01 02:38:04;;;;;;;57.72;26.35;;;0.90;99.90;;;;;;5041450;28;20099;-87
2022/05/01 02:40:31;;;;;;;60.88;26.13;;;0.90;99.90;;;;;;5023725;28;20049;-87
2022/05/01 02:43:00;;;;;;;54.47;25.02;;;0.70;99.90;;;;;;5040996;28;20120;-87
2022/05/01 02:45:29;;;;;;;59.08;25.85;;;0.60;99.90;;;;;;5007356;28;20042;-87
2022/05/01 02:47:54;;;;;;;57.80;26.20;;;0.90;99.90;;;;;;5041036;28;20143;-87
2022/05/01 02:50:21;;;;;;;65.93;28.73;;;0.80;99.90;;;;;;5060864;28;20068;-88
2022/05/01 02:52:47;;;;;;;79.68;30.50;;;0.80;99.90;;;;;;5060217;28;20478;-87
2022/05/01 02:55:14;;;;;;;74.65;30.08;;;0.70;99.90;;;;;;5042308;28;20057;-87
2022/05/01 02:57:39;;;;;;;71.30;29.00;;;0.80;99.90;;;;;;5059481;28;20049;-87
2022/05/01 03:00:16;;;;;;;79.45;31.08;;;1.70;99.90;;;;;;5059452;28;20106;-87
2022/05/01 03:02:43;;;;;;;86.13;34.90;;;0.80;99.90;;;;;;5060000;28;20373;-88
2022/05/01 03:05:09;;;;;;;73.05;32.15;;;0.80;99.90;;;;;;5041806;28;20402;-88
2022/05/01 03:07:35;;;;;;;73.57;32.40;;;0.80;99.90;;;;;;5059668;28;20087;-86
2022/05/01 03:10:00;;;;;;;77.65;32.20;;;0.80;99.90;;;;;;5059376;28;20048;-87
2022/05/01 03:12:26;;;;;;;75.97;32.50;;;0.70;99.90;;;;;;5041155;28;20056;-88
2022/05/01 03:14:51;;;;;;;78.97;30.95;;;0.60;99.90;;;;;;5059888;28;20107;-87
2022/05/01 03:17:17;;;;;;;71.38;30.35;;;0.60;99.90;;;;;;5026619;28;20041;-88
2022/05/01 03:22:27;;;;;;;69.75;29.98;;;1.10;99.90;;;;;;5061567;28;20055;-88
2022/05/01 03:24:53;;;;;;;78.97;32.05;;;0.50;99.90;;;;;;5060745;28;20128;-87
2022/05/01 03:27:18;;;;;;;81.47;32.38;;;0.50;99.90;;;;;;5043072;28;20051;-88
2022/05/01 03:30:15;;;;;;;105.85;34.20;;;0.60;99.90;;;;;;5042467;28;20082;-86
2022/05/01 03:32:29;;;;;;;75.90;30.05;;;0.60;99.90;;;;;;5042343;28;20053;-88
2022/05/01 03:34:56;;;;;;;76.63;31.00;;;0.50;99.90;;;;;;5025805;28;20041;-87
2022/05/01 03:37:22;;;;;;;74.28;31.83;;;0.50;99.90;;;;;;5042821;28;20044;-88
2022/05/01 03:39:48;;;;;;;74.18;30.50;;;1.00;99.90;;;;;;5042420;28;20098;-87
2022/05/01 03:42:14;;;;;;;74.63;30.73;;;0.40;99.90;;;;;;5026668;28;20083;-88
2022/05/01 03:44:39;;;;;;;71.97;31.27;;;0.90;99.90;;;;;;5026982;28;20041;-87
2022/05/01 03:47:05;;;;;;;82.15;32.10;;;0.40;99.90;;;;;;5028439;28;20055;-87
2022/05/01 03:49:31;;;;;;;79.95;31.27;;;0.50;99.90;;;;;;5064955;28;20049;-87
2022/05/01 03:51:56;;;;;;;81.95;33.85;;;0.50;99.90;;;;;;5046572;28;20530;-86
2022/05/01 03:54:22;;;;;;;91.45;34.78;;;0.70;99.90;;;;;;5043616;28;20045;-87
2022/05/01 03:56:48;;;;;;;74.90;31.05;;;0.40;99.90;;;;;;5044021;28;20043;-87
2022/05/01 03:59:13;;;;;;;86.40;35.47;;;0.40;99.90;;;;;;5027087;28;20052;-87
2022/05/01 04:01:39;;;;;;;84.32;32.50;;;0.30;99.90;;;;;;5044138;28;20053;-87
2022/05/01 04:04:08;;;;;;;77.65;31.98;;;0.30;99.90;;;;;;5042575;28;20045;-87
2022/05/01 04:06:33;;;;;;;76.03;33.05;;;0.30;99.90;;;;;;5023321;28;20057;-87
2022/05/01 04:09:00;;;;;;;76.25;30.92;;;0.40;99.90;;;;;;5043400;28;20048;-86
2022/05/01 04:11:25;;;;;;;86.35;33.30;;;0.30;99.90;;;;;;5043622;28;20049;-87
2022/05/01 04:13:51;;;;;;;81.65;33.05;;;1.00;99.90;;;;;;5043667;28;20110;-87
2022/05/01 04:16:17;;;;;;;76.43;30.42;;;0.70;99.90;;;;;;5039687;28;20048;-87
2022/05/01 04:18:42;;;;;;;84.13;35.17;;;0.30;99.90;;;;;;5021575;28;20056;-87
2022/05/01 04:21:10;;;;;;;80.45;32.42;;;0.70;99.90;;;;;;5021861;28;20426;-87
2022/05/01 04:23:39;;;;;;;87.57;32.60;;;0.40;99.90;;;;;;5037550;28;20142;-87
2022/05/01 04:26:05;;;;;;;83.70;32.63;;;0.90;99.90;;;;;;5021711;28;20041;-87
2022/05/01 04:28:30;;;;;;;77.10;33.55;;;0.50;99.90;;;;;;5038041;28;20131;-87
2022/05/01 04:30:56;;;;;;;80.32;32.40;;;1.00;99.90;;;;;;5037812;28;20029;-87
2022/05/01 04:33:22;;;;;;;80.63;33.38;;;0.50;99.90;;;;;;5021909;28;20045;-87
2022/05/01 04:35:50;;;;;;;77.72;30.85;;;0.60;99.90;;;;;;5022091;28;20099;-87
2022/05/01 04:38:21;;;;;;;75.75;31.85;;;0.60;99.90;;;;;;5021387;28;20044;-87
2022/05/01 04:40:48;;;;;;;67.80;29.13;;;0.60;99.90;;;;;;5037920;28;20041;-88
2022/05/01 04:43:19;;;;;;;71.32;31.05;;;0.90;99.90;;;;;;5021640;28;20041;-87
2022/05/01 04:45:48;;;;;;;70.30;29.83;;;0.70;99.90;;;;;;5021543;28;20049;-87
2022/05/01 04:48:14;;;;;;;73.70;31.13;;;1.10;99.90;;;;;;5038229;28;20037;-87
2022/05/01 04:50:41;;;;;;;79.55;31.35;;;1.40;99.90;;;;;;5021716;28;20088;-87
2022/05/01 04:53:12;;;;;;;70.68;32.75;;;1.00;99.90;;;;;;5038717;28;20056;-87
2022/05/01 04:55:39;;;;;;;84.88;32.88;;;1.00;99.90;;;;;;5021550;28;20438;-87
2022/05/01 04:58:08;;;;;;;81.57;32.08;;;1.80;99.90;;;;;;5037448;28;20124;-87
2022/05/01 05:00:35;;;;;;;76.47;33.03;;;1.10;99.90;;;;;;5037683;28;20076;-87
2022/05/01 05:03:02;;;;;;;73.35;31.67;;;1.70;99.90;;;;;;5038413;28;20106;-87
2022/05/01 05:05:29;;;;;;;68.72;30.60;;;1.30;99.90;;;;;;5038461;28;20393;-87
2022/05/01 05:07:55;;;;;;;71.63;32.28;;;1.40;99.90;;;;;;5021502;28;20068;-87
2022/05/01 05:10:20;;;;;;;69.38;31.90;;;1.50;99.90;;;;;;5021160;28;20473;-87
2022/05/01 05:12:48;;;;;;;73.93;32.35;;;1.60;99.90;;;;;;5037826;28;20052;-87
2022/05/01 05:15:16;;;;;;;72.60;34.50;;;2.40;99.90;;;;;;5021721;28;20079;-86
2022/05/01 05:17:43;;;;;;;78.00;34.80;;;1.80;99.90;;;;;;5021472;28;20408;-86
2022/05/01 05:20:11;;;;;;;75.95;32.95;;;2.00;99.90;;;;;;5020670;28;20051;-87
2022/05/01 05:22:37;;;;;;;74.22;34.85;;;2.00;99.90;;;;;;5021442;28;20080;-87
2022/05/01 05:25:09;;;;;;;77.13;34.92;;;2.20;99.90;;;;;;5020461;28;20037;-87
2022/05/01 05:27:35;;;;;;;71.57;33.50;;;2.30;99.90;;;;;;5037023;28;20444;-87
2022/05/01 05:30:01;;;;;;;69.88;34.33;;;2.40;99.90;;;;;;5021140;28;20056;-87
2022/05/01 05:32:27;;;;;;;75.28;34.80;;;3.40;99.90;;;;;;5036915;28;20049;-86
2022/05/01 05:34:52;;;;;;;69.63;33.20;;;2.70;99.90;;;;;;5021025;28;20045;-87
2022/05/01 05:37:19;;;;;;;67.78;34.75;;;2.80;99.90;;;;;;5023851;28;20049;-87
2022/05/01 05:39:45;;;;;;;72.72;34.70;;;3.00;99.90;;;;;;5040970;28;20041;-88
2022/05/01 05:42:11;;;;;;;67.30;33.28;;;3.20;99.90;;;;;;5024877;28;20053;-88
2022/05/01 05:44:38;;;;;;;75.32;35.65;;;3.40;99.90;;;;;;5041714;28;20071;-87
2022/05/01 05:47:04;;;;;;;69.18;34.05;;;3.60;99.90;;;;;;5022865;28;20060;-88
2022/05/01 05:49:31;;;;;;;76.97;34.35;;;4.40;99.90;;;;;;5040572;28;20037;-87
2022/05/01 05:52:00;;;;;;;69.20;35.08;;;4.00;99.90;;;;;;5023775;28;20077;-86
2022/05/01 05:54:25;;;;;;;78.57;36.55;;;4.40;99.90;;;;;;5019617;28;20045;-87
2022/05/01 05:56:51;;;;;;;71.35;35.20;;;4.50;99.90;;;;;;5020286;28;20048;-87
2022/05/01 05:59:17;;;;;;;67.20;33.85;;;4.60;99.90;;;;;;5004652;28;20132;-87
2022/05/01 06:01:42;;;;;;;66.65;35.20;;;4.80;99.90;;;;;;5003680;28;20098;-86
2022/05/01 06:04:08;;;;;;;65.20;33.65;;;4.90;99.90;;;;;;5020507;28;20049;-88
2022/05/01 06:06:36;;;;;;;59.70;33.10;;;5.20;99.90;;;;;;5023860;28;20041;-90
2022/05/01 06:09:03;;;;;;;52.83;30.10;;;5.30;99.90;;;;;;5024425;28;20042;-89
2022/05/01 06:11:28;;;;;;;47.63;29.30;;;5.80;99.90;;;;;;5022924;28;20053;-90
2022/05/01 06:13:55;;;;;;;42.88;28.23;;;6.60;99.90;;;;;;5023257;28;20081;-89
2022/05/01 06:16:21;;;;;;;33.83;22.60;;;7.70;99.90;;;;;;5004370;28;20486;-87
2022/05/01 06:18:46;;;;;;;30.00;21.13;;;8.90;99.90;;;;;;5004146;28;20144;-88
2022/05/01 06:21:13;;;;;;;28.45;17.95;;;9.70;99.90;;;;;;5019915;28;20050;-89
2022/05/01 06:23:40;;;;;;;17.35;14.05;;;10.40;99.90;;;;;;5021365;28;20046;-88
2022/05/01 06:26:08;;;;;;;14.23;10.77;;;11.10;99.90;;;;;;5027132;28;20094;-89
2022/05/01 06:28:34;;;;;;;15.63;10.02;;;11.70;99.90;;;;;;5016469;28;20041;-88
2022/05/01 06:31:02;;;;;;;12.98;8.63;;;12.20;99.90;;;;;;5009220;28;20073;-89
2022/05/01 06:33:30;;;;;;;11.00;7.72;;;12.00;99.90;;;;;;5021842;28;20042;-89
2022/05/01 06:35:56;;;;;;;13.52;7.60;;;12.00;99.90;;;;;;5021995;28;20042;-88
2022/05/01 06:38:22;;;;;;;15.45;8.15;;;12.00;99.90;;;;;;5006846;28;20060;-88
2022/05/01 06:40:48;;;;;;;10.32;7.70;;;12.00;99.90;;;;;;5007552;28;20041;-88
2022/05/01 06:43:15;;;;;;;12.70;7.88;;;12.40;99.90;;;;;;5005130;28;20087;-88
2022/05/01 06:45:42;;;;;;;9.63;7.45;;;11.80;99.90;;;;;;5021041;28;20103;-88
2022/05/01 06:48:10;;;;;;;12.90;7.97;;;12.30;99.90;;;;;;5005091;28;20053;-88
2022/05/01 06:50:36;;;;;;;11.25;8.05;;;12.60;99.90;;;;;;5021528;28;20084;-88
2022/05/01 06:53:02;;;;;;;10.65;6.97;;;12.80;99.90;;;;;;5004717;28;20053;-88
2022/05/01 06:55:37;;;;;;;9.63;6.80;;;12.40;99.90;;;;;;5004321;28;20045;-88
2022/05/01 06:58:03;;;;;;;8.93;5.78;;;12.40;99.90;;;;;;4988217;28;20045;-88
2022/05/01 07:00:29;;;;;;;8.35;5.70;;;12.80;99.90;;;;;;5059441;28;20055;-88
2022/05/01 07:02:55;;;;;;;11.18;7.25;;;12.60;99.90;;;;;;5043468;28;20067;-89
2022/05/01 07:05:22;;;;;;;9.55;6.65;;;13.00;99.90;;;;;;5059766;28;20158;-88
2022/05/01 07:07:50;;;;;;;8.90;5.50;;;13.40;99.90;;;;;;5043951;28;20127;-88
2022/05/01 07:10:16;;;;;;;9.43;6.07;;;13.70;99.90;;;;;;5043262;28;20400;-88
2022/05/01 07:12:42;;;;;;;8.65;5.57;;;14.70;99.90;;;;;;5043876;28;20052;-88
2022/05/01 07:15:08;;;;;;;8.07;5.20;;;14.40;92.30;;;;;;5061125;28;20041;-89
2022/05/01 07:17:34;;;;;;;7.68;5.03;;;14.80;95.40;;;;;;5060747;28;20059;-88
2022/05/01 07:20:00;;;;;;;8.52;5.03;;;14.70;90.50;;;;;;5043399;28;20048;-88
2022/05/01 07:22:26;;;;;;;7.22;4.88;;;15.10;86.20;;;;;;5044444;28;20044;-88
2022/05/01 07:24:52;;;;;;;10.35;4.30;;;15.20;85.40;;;;;;5043290;28;20040;-89
2022/05/01 07:27:18;;;;;;;8.57;4.88;;;15.40;81.70;;;;;;5045185;28;20052;-88
2022/05/01 07:29:44;;;;;;;7.55;5.00;;;16.40;77.90;;;;;;5043411;28;20071;-88
2022/05/01 07:32:10;;;;;;;9.75;5.45;;;17.30;69.50;;;;;;5043676;28;20060;-88
2022/05/01 07:34:36;;;;;;;8.10;4.47;;;16.30;60.00;;;;;;5060052;28;20453;-88
2022/05/01 07:37:03;;;;;;;9.90;5.22;;;15.40;64.40;;;;;;5059284;28;20036;-88
2022/05/01 07:39:29;;;;;;;10.23;5.57;;;15.40;73.90;;;;;;5043488;28;20056;-88
2022/05/01 07:41:55;;;;;;;8.63;5.35;;;15.60;73.20;;;;;;5060567;28;20400;-89
2022/05/01 07:44:21;;;;;;;7.00;4.93;;;14.10;84.20;;;;;;5044069;28;20052;-88
2022/05/01 07:46:47;;;;;;;8.70;5.57;;;15.00;91.10;;;;;;5043084;28;20049;-88
2022/05/01 07:49:13;;;;;;;9.15;5.25;;;14.30;91.80;;;;;;5043546;28;20040;-88
2022/05/01 07:51:39;;;;;;;9.73;5.53;;;14.30;91.20;;;;;;5043386;28;20542;-88
2022/05/01 07:54:05;;;;;;;8.93;5.40;;;14.00;92.40;;;;;;5061012;28;20071;-88
2022/05/01 07:56:33;;;;;;;7.15;4.65;;;14.80;91.30;;;;;;5043373;28;20157;-89
2022/05/01 07:58:59;;;;;;;7.47;4.80;;;14.00;89.40;;;;;;5040782;28;20071;-89
2022/05/01 08:01:25;;;;;;;6.93;4.55;;;13.00;85.00;;;;;;5041785;28;20041;-88
2022/05/01 08:06:35;;;;;;;7.88;4.82;;;14.40;90.00;;;;;;5049306;28;20049;-89
2022/05/01 08:09:01;;;;;;;8.50;5.40;;;13.50;92.30;;;;;;5022101;28;20127;-88
2022/05/01 08:11:27;;;;;;;9.85;5.25;;;14.30;91.60;;;;;;5039075;28;20041;-89
2022/05/01 08:13:53;;;;;;;8.63;4.40;;;12.80;90.80;;;;;;5022589;28;20496;-89
2022/05/01 08:16:20;;;;;;;7.15;4.60;;;13.30;94.40;;;;;;5022807;28;20367;-88
2022/05/01 08:21:32;;;;;;;8.52;4.70;;;12.30;99.90;;;;;;5024730;28;20092;-89
2022/05/01 08:23:59;;;;;;;8.90;4.47;;;13.40;99.90;;;;;;5022645;28;20048;-89
2022/05/01 08:26:25;;;;;;;10.55;4.20;;;15.20;95.40;;;;;;5040396;28;20047;-89
2022/05/01 08:28:55;;;;;;;7.50;4.65;;;15.80;75.40;;;;;;5023181;28;20037;-89
2022/05/01 08:31:21;;;;;;;5.63;3.60;;;15.80;69.90;;;;;;5032146;28;20076;-88
2022/05/01 08:33:47;;;;;;;11.40;4.50;;;14.90;71.40;;;;;;5001438;28;20495;-88
2022/05/01 08:36:13;;;;;;;7.15;3.80;;;14.90;57.10;;;;;;5034753;28;20049;-87
2022/05/01 08:38:39;;;;;;;6.75;3.75;;;15.40;58.60;;;;;;5036287;28;20079;-88
2022/05/01 08:41:07;;;;;;;7.43;3.03;;;16.00;50.90;;;;;;5020457;28;20048;-88
2022/05/01 08:43:34;;;;;;;5.88;3.38;;;16.10;36.60;;;;;;5020109;28;20044;-89
2022/05/01 08:46:19;;;;;;;5.95;3.10;;;17.30;41.90;;;;;;5020269;28;20158;-89
2022/05/01 08:48:53;;;;;;;9.60;3.60;;;18.20;30.00;;;;;;5019781;28;20408;-88
2022/05/01 08:51:21;;;;;;;8.40;3.70;;;19.10;21.00;;;;;;5035697;28;20049;-88
2022/05/01 08:53:48;;;;;;;6.88;3.35;;;17.90;18.80;;;;;;5035734;28;20137;-88
2022/05/01 08:56:15;;;;;;;8.75;4.40;;;18.20;23.80;;;;;;5019577;28;20037;-88
2022/05/01 08:58:41;;;;;;;9.07;4.53;;;18.00;25.10;;;;;;5019330;28;20080;-87
2022/05/01 09:01:11;;;;;;;7.50;3.97;;;17.40;24.20;;;;;;5018776;28;20044;-86
2022/05/01 09:03:39;;;;;;;7.43;3.85;;;17.70;20.40;;;;;;5035255;28;20488;-88
2022/05/01 09:06:05;;;;;;;7.78;3.35;;;17.20;23.90;;;;;;5035563;28;20051;-89
2022/05/01 09:08:31;;;;;;;6.53;3.25;;;17.40;20.70;;;;;;5036714;28;20045;-89
2022/05/01 09:12:49;;;;;;;6.65;4.03;;;16.70;25.20;;;;;;5038836;28;20133;-90
2022/05/01 09:13:47;;;;;;;11.80;3.92;;;16.40;28.60;;;;;;5060517;28;20080;-89
2022/05/01 09:16:13;;;;;;;9.43;3.83;;;16.10;31.80;;;;;;5040323;28;20098;-89
2022/05/01 09:18:43;;;;;;;5.22;3.13;;;16.20;34.60;;;;;;5023878;28;20041;-89
2022/05/01 09:21:09;;;;;;;5.97;3.53;;;15.10;26.50;;;;;;5007963;28;20111;-89
2022/05/01 09:23:41;;;;;;;6.55;3.38;;;16.00;35.00;;;;;;5023773;28;20433;-90
2022/05/01 09:26:08;;;;;;;21.25;4.32;;;16.20;30.50;;;;;;5023775;28;20045;-89
2022/05/01 09:28:36;;;;;;;6.93;3.92;;;15.70;30.60;;;;;;5040326;28;20053;-89
2022/05/01 09:31:02;;;;;;;9.10;4.38;;;15.10;32.00;;;;;;5023863;28;20180;-89
2022/05/01 09:33:27;;;;;;;12.00;3.80;;;16.50;28.70;;;;;;5023916;28;20048;-89
2022/05/01 09:35:53;;;;;;;10.55;3.63;;;15.20;38.80;;;;;;5058386;28;20389;-89
2022/05/01 09:38:26;;;;;;;6.82;4.03;;;15.90;38.30;;;;;;5058435;28;20048;-89
2022/05/01 09:40:55;;;;;;;7.15;3.50;;;15.20;29.90;;;;;;5023985;28;20037;-90
2022/05/01 09:43:36;;;;;;;9.40;4.55;;;15.70;36.10;;;;;;5023524;28;20045;-89
2022/05/01 09:46:21;;;;;;;6.78;4.60;;;16.70;32.00;;;;;;5040629;28;20365;-89
2022/05/01 09:49:05;;;;;;;7.75;4.25;;;16.70;28.00;;;;;;5024202;28;20092;-89
2022/05/01 09:51:33;;;;;;;4.88;2.58;;;17.30;20.50;;;;;;5057178;28;20083;-89
2022/05/01 09:54:01;;;;;;;9.85;3.25;;;17.90;16.80;;;;;;5039344;28;20045;-89
2022/05/01 09:56:26;;;;;;;8.95;3.13;;;17.90;15.00;;;;;;5023087;28;20042;-89
2022/05/01 09:59:02;;;;;;;8.45;3.40;;;17.80;13.60;;;;;;5039171;28;20052;-89
2022/05/01 10:01:30;;;;;;;;;;;17.80;13.90;;;;;;5023670;28;20485;-89
2022/05/01 10:04:00;;;;;;;7.80;2.75;;;18.80;18.10;;;;;;5022842;28;20376;-89
2022/05/01 10:06:29;;;;;;;3.90;2.80;;;18.00;11.80;;;;;;5023000;28;20139;-89
2022/05/01 10:08:55;;;;;;;4.97;2.80;;;17.80;11.70;;;;;;5022507;28;20041;-89
2022/05/01 10:11:24;;;;;;;6.53;2.95;;;17.50;10.70;;;;;;5022860;28;20048;-89
2022/05/01 10:13:50;;;;;;;5.88;3.08;;;17.80;11.70;;;;;;5039469;28;20469;-89
2022/05/01 10:16:16;;;;;;;9.25;4.00;;;17.70;11.00;;;;;;5039262;28;20218;-89
2022/05/01 10:18:44;;;;;;;5.35;3.13;;;16.70;12.10;;;;;;5039229;28;20037;-89
2022/05/01 10:21:10;;;;;;;7.10;2.75;;;17.50;12.00;;;;;;5038354;28;20131;-89
2022/05/01 10:23:37;;;;;;;6.88;2.90;;;17.90;12.60;;;;;;5022054;28;20055;-89
2022/05/01 10:26:26;;;;;;;5.22;2.25;;;18.40;9.50;;;;;;5021916;28;20588;-89
2022/05/01 10:29:13;;;;;;;5.60;2.88;;;19.10;7.70;;;;;;5038487;28;20090;-89
2022/05/01 10:35:04;;;;;;;6.90;3.72;;;18.70;1.90;;;;;;5056159;28;20371;-89
2022/05/01 10:38:18;;;;;;;6.03;2.42;;;18.10;5.00;;;;;;5038660;28;20053;-89
2022/05/01 10:40:59;;;;;;;4.95;2.60;;;17.50;1.30;;;;;;5008528;28;20409;-89
2022/05/01 10:43:37;;;;;;;7.03;2.72;;;17.80;3.10;;;;;;5038186;28;20131;-89
2022/05/01 10:46:24;;;;;;;6.55;2.70;;;17.10;5.20;;;;;;5021796;28;20080;-89
2022/05/01 10:48:49;;;;;;;;;;;17.40;3.20;;;;;;5037963;28;20140;-89
2022/05/01 10:51:30;;;;;;;15.40;2.40;;;18.60;2.60;;;;;;5038153;28;19963;-89
2022/05/01 10:54:18;;;;;;;4.85;2.58;;;18.20;1.00;;;;;;5037800;28;20060;-89
2022/05/01 10:56:49;;;;;;;5.35;2.33;;;18.40;1.00;;;;;;5038186;28;20053;-89
2022/05/01 10:59:30;;;;;;;5.45;2.25;;;18.40;1.00;;;;;;5037146;28;20060;-88
2022/05/01 11:01:58;;;;;;;4.22;2.20;;;18.60;1.00;;;;;;5021287;28;20057;-89
2022/05/01 11:04:24;;;;;;;4.43;2.80;;;18.80;1.00;;;;;;5037271;28;20045;-89
2022/05/01 11:06:55;;;;;;;7.03;2.65;;;19.10;1.00;;;;;;5020949;28;20048;-89
2022/05/01 11:09:25;;;;;;;5.63;2.60;;;19.00;1.00;;;;;;5005119;28;20045;-89
2022/05/01 11:11:56;;;;;;;6.57;2.75;;;18.90;1.00;;;;;;5021155;28;20056;-89
2022/05/01 11:14:38;;;;;;;4.07;2.08;;;19.20;1.00;;;;;;5037454;28;20051;-89
2022/05/01 11:17:04;;;;;;;6.85;2.72;;;18.70;1.00;;;;;;5020850;28;20045;-89
2022/05/01 11:19:34;;;;;;;4.82;2.88;;;19.30;1.00;;;;;;5020861;28;20044;-89
2022/05/01 11:22:07;;;;;;;10.75;3.10;;;18.70;1.00;;;;;;5037630;28;20049;-89
2022/05/01 11:24:43;;;;;;;6.22;2.40;;;18.80;1.00;;;;;;5055754;28;20353;-89
2022/05/01 11:27:15;;;;;;;4.22;2.30;;;19.10;1.00;;;;;;5021655;28;20429;-89
2022/05/01 11:30:07;;;;;;;5.60;2.75;;;18.80;1.00;;;;;;5005415;28;20045;-89
2022/05/01 11:32:46;;;;;;;5.00;2.40;;;18.60;1.00;;;;;;5021899;28;20060;-89
2022/05/01 11:35:13;;;;;;;6.35;2.42;;;19.30;1.00;;;;;;5020674;28;20052;-90
2022/05/01 11:38:08;;;;;;;4.55;2.20;;;19.80;1.00;;;;;;5021403;28;20044;-88
2022/05/01 11:40:34;;;;;;;4.93;2.58;;;19.50;1.00;;;;;;5022100;28;20095;-89
2022/05/01 11:43:19;;;;;;;4.20;2.50;;;19.40;1.00;;;;;;5041862;28;20396;-88
2022/05/01 11:45:46;;;;;;;5.32;2.97;;;19.50;1.00;;;;;;5017560;28;20186;-87
2022/05/01 11:48:20;;;;;;;5.63;2.58;;;19.80;1.00;;;;;;5028586;28;20044;-87
2022/05/01 11:50:52;;;;;;;8.18;2.55;;;19.90;1.00;;;;;;5044634;28;20104;-87
2022/05/01 11:53:30;;;;;;;4.45;2.72;;;19.80;1.00;;;;;;5025409;28;20045;-87
2022/05/01 12:04:34;;;;;;;3.97;2.53;;;21.80;1.00;;;;;;5036923;28;19921;-88
2022/05/01 12:07:20;;;;;;;6.32;2.33;;;22.20;1.00;;;;;;5036580;28;20556;-87
2022/05/01 12:09:51;;;;;;;5.65;2.78;;;22.10;1.00;;;;;;5036803;28;20082;-88
2022/05/01 12:12:19;;;;;;;6.50;2.35;;;21.10;1.00;;;;;;5020668;28;20041;-88
2022/05/01 12:14:47;;;;;;;4.43;2.13;;;21.00;1.00;;;;;;5019681;28;20048;-88
2022/05/01 12:17:15;;;;;;;4.13;2.15;;;21.10;1.00;;;;;;5036761;28;20049;-88
2022/05/01 12:19:43;;;;;;;5.68;2.50;;;20.20;1.00;;;;;;5020188;28;20119;-88
2022/05/01 12:22:14;;;;;;;5.43;2.80;;;19.10;1.00;;;;;;5036782;28;20049;-87
2022/05/01 12:24:41;;;;;;;7.95;2.78;;;18.80;1.00;;;;;;5020505;28;20110;-87
2022/05/01 12:27:07;;;;;;;6.50;2.50;;;19.40;1.00;;;;;;5019932;28;20041;-87
2022/05/01 12:29:35;;;;;;;5.90;2.78;;;19.60;1.00;;;;;;5019953;28;20132;-87
2022/05/01 12:32:12;;;;;;;4.70;3.22;;;19.60;1.00;;;;;;5019871;28;20052;-87
2022/05/01 12:34:57;;;;;;;6.25;2.70;;;19.50;1.00;;;;;;5020348;28;20095;-87
2022/05/01 12:37:27;;;;;;;5.85;2.50;;;19.00;1.00;;;;;;5020453;28;20429;-87
2022/05/01 12:40:09;;;;;;;6.35;2.92;;;17.90;1.00;;;;;;5036283;28;20052;-86
2022/05/01 12:45:44;;;;;;;5.85;3.22;;;19.10;1.00;;;;;;5037860;28;20088;-87
2022/05/01 12:48:13;;;;;;;4.55;2.42;;;19.20;1.00;;;;;;5023761;28;20128;-88
2022/05/01 12:50:40;;;;;;;7.38;2.65;;;18.50;1.00;;;;;;5023738;28;20048;-89
2022/05/01 12:53:23;;;;;;;5.80;2.92;;;17.60;1.00;;;;;;5040279;28;20040;-89
2022/05/01 12:55:49;;;;;;;8.15;3.28;;;18.10;1.00;;;;;;5057931;28;20044;-89
2022/05/01 12:58:27;;;;;;;5.20;2.65;;;18.00;1.00;;;;;;5040218;28;20551;-89
2022/05/01 13:00:53;;;;;;;5.07;2.72;;;18.20;1.00;;;;;;5023193;28;20513;-89
2022/05/01 13:03:24;;;;;;;10.82;3.72;;;18.40;1.00;;;;;;5040062;28;20138;-88
2022/05/01 13:06:15;;;;;;;6.45;2.78;;;18.50;1.00;;;;;;5023747;28;20037;-87
2022/05/01 13:08:46;;;;;;;9.50;2.80;;;18.40;1.00;;;;;;5023596;28;20045;-87
2022/05/01 13:11:30;;;;;;;9.80;2.85;;;18.30;1.00;;;;;;5023374;28;20041;-87
2022/05/01 13:14:09;;;;;;;4.65;2.83;;;18.30;1.00;;;;;;5057467;28;20481;-87
2022/05/01 13:16:35;;;;;;;7.45;2.42;;;18.40;1.00;;;;;;5023191;28;20058;-86
2022/05/01 13:19:01;;;;;;;8.63;2.95;;;18.30;1.00;;;;;;5023066;28;20041;-87
2022/05/01 13:21:30;;;;;;;6.93;2.90;;;18.40;1.00;;;;;;5039811;28;20122;-90
2022/05/01 13:24:18;;;;;;;5.55;3.10;;;17.20;1.00;;;;;;5023171;28;20051;-89
2022/05/01 13:26:44;;;;;;;6.10;2.90;;;17.40;1.60;;;;;;5039982;28;20053;-88